createdAt,value
2017-05-10T00:00:37.030Z,1.30
2017-05-10T00:03:03.974Z,1.40
2017-05-10T00:05:31.270Z,1.40
2017-05-10T00:07:58.182Z,1.30
2017-05-10T00:10:25.118Z,1.40
2017-05-10T00:12:52.063Z,1.30
2017-05-10T00:15:19.010Z,1.30
2017-05-10T00:17:45.970Z,1.30
2017-05-10T00:20:12.889Z,1.40
2017-05-10T00:22:39.809Z,1.30
2017-05-10T00:25:06.729Z,1.30
2017-05-10T00:27:33.673Z,1.30
2017-05-10T00:30:00.614Z,1.20
2017-05-10T00:32:27.554Z,1.20
2017-05-10T00:34:54.509Z,1.20
2017-05-10T00:37:21.481Z,1.10
2017-05-10T00:39:48.407Z,1.20
2017-05-10T00:42:16.123Z,1.10
2017-05-10T00:44:43.039Z,1.10
2017-05-10T00:47:09.976Z,1.10
2017-05-10T00:49:36.941Z,1.10
2017-05-10T00:52:03.955Z,1.10
2017-05-10T00:54:30.899Z,1.10
2017-05-10T00:56:58.118Z,1.10
2017-05-10T00:59:25.051Z,1.10
2017-05-10T01:01:51.983Z,1.10
2017-05-10T01:04:19.032Z,1.10
2017-05-10T01:06:45.947Z,1.20
2017-05-10T01:09:13.848Z,1.10
2017-05-10T01:11:40.781Z,1.10
2017-05-10T01:14:07.698Z,1.20
2017-05-10T01:16:34.666Z,1.20
2017-05-10T01:19:01.606Z,1.20
2017-05-10T01:21:28.535Z,1.20
2017-05-10T01:23:55.591Z,1.20
2017-05-10T01:26:22.547Z,1.30
2017-05-10T01:28:49.467Z,1.30
2017-05-10T01:31:16.485Z,1.30
2017-05-10T01:33:44.184Z,1.20
2017-05-10T01:36:11.130Z,1.20
2017-05-10T01:38:38.090Z,1.20
2017-05-10T01:41:05.379Z,1.20
2017-05-10T01:43:33.063Z,1.20
2017-05-10T01:46:00.035Z,1.20
2017-05-10T01:48:26.995Z,1.20
2017-05-10T01:50:53.933Z,1.20
2017-05-10T01:53:21.160Z,1.20
2017-05-10T01:55:48.106Z,1.30
2017-05-10T01:58:15.038Z,1.30
2017-05-10T02:00:41.978Z,1.40
2017-05-10T02:03:08.907Z,1.50
2017-05-10T02:05:36.575Z,1.50
2017-05-10T02:08:04.275Z,1.50
2017-05-10T02:10:31.263Z,1.60
2017-05-10T02:12:58.195Z,1.60
2017-05-10T02:15:25.439Z,1.60
2017-05-10T02:17:52.383Z,1.70
2017-05-10T02:20:19.338Z,1.70
2017-05-10T02:22:46.305Z,1.70
2017-05-10T02:25:13.982Z,1.70
2017-05-10T02:27:40.947Z,1.80
2017-05-10T02:30:08.939Z,1.80
2017-05-10T02:32:35.903Z,1.80
2017-05-10T02:35:02.833Z,1.80
2017-05-10T02:37:29.808Z,1.80
2017-05-10T02:39:57.478Z,1.90
2017-05-10T02:42:25.151Z,1.90
2017-05-10T02:44:52.466Z,1.90
2017-05-10T02:47:19.396Z,2.00
2017-05-10T02:49:46.311Z,2.00
2017-05-10T02:52:13.567Z,2.00
2017-05-10T02:54:40.503Z,2.00
2017-05-10T02:57:07.430Z,2.00
2017-05-10T02:59:34.365Z,2.10
2017-05-10T03:02:02.045Z,2.10
2017-05-10T03:04:28.979Z,2.10
2017-05-10T03:06:55.914Z,2.10
2017-05-10T03:09:23.571Z,2.20
2017-05-10T03:11:51.286Z,2.20
2017-05-10T03:14:18.242Z,2.20
2017-05-10T03:16:45.160Z,2.30
2017-05-10T03:19:12.097Z,2.30
2017-05-10T03:21:39.049Z,2.30
2017-05-10T03:24:05.969Z,2.30
2017-05-10T03:26:32.890Z,2.30
2017-05-10T03:29:00.577Z,2.40
2017-05-10T03:31:27.495Z,2.40
2017-05-10T03:33:55.166Z,2.40
2017-05-10T03:36:23.126Z,2.40
2017-05-10T03:38:50.814Z,2.50
2017-05-10T03:41:17.876Z,2.50
2017-05-10T03:43:44.855Z,2.60
2017-05-10T03:46:11.784Z,2.60
2017-05-10T03:48:38.761Z,2.70
2017-05-10T03:51:05.724Z,2.70
2017-05-10T03:53:33.399Z,2.70
2017-05-10T03:56:00.338Z,2.80
2017-05-10T03:58:27.485Z,2.80
2017-05-10T04:00:54.480Z,2.90
2017-05-10T04:03:21.435Z,3.00
2017-05-10T04:05:48.797Z,3.00
2017-05-10T04:08:15.740Z,3.00
2017-05-10T04:10:42.678Z,3.10
2017-05-10T04:13:09.675Z,3.10
2017-05-10T04:15:36.647Z,3.20
2017-05-10T04:18:03.586Z,3.20
2017-05-10T04:20:30.543Z,3.20
2017-05-10T04:22:57.477Z,3.20
2017-05-10T04:25:24.407Z,3.30
2017-05-10T04:27:51.362Z,3.40
2017-05-10T04:30:18.289Z,3.50
2017-05-10T04:32:45.211Z,3.60
2017-05-10T04:35:13.250Z,3.90
2017-05-10T04:37:40.198Z,4.70
2017-05-10T04:40:07.454Z,5.70
2017-05-10T04:42:34.407Z,6.80
2017-05-10T04:45:02.094Z,7.90
2017-05-10T04:47:29.029Z,8.90
2017-05-10T04:49:56.100Z,9.90
2017-05-10T04:52:23.034Z,10.60
2017-05-10T04:54:49.969Z,11.40
2017-05-10T04:57:16.980Z,12.20
2017-05-10T04:59:43.955Z,12.80
2017-05-10T05:02:10.943Z,13.40
2017-05-10T05:04:38.277Z,14.20
2017-05-10T05:07:05.255Z,14.80
2017-05-10T05:09:32.183Z,15.40
2017-05-10T05:11:59.133Z,15.80
2017-05-10T05:14:26.112Z,16.50
2017-05-10T05:16:53.816Z,16.90
2017-05-10T05:19:20.836Z,17.40
2017-05-10T05:21:47.786Z,17.90
2017-05-10T05:24:14.723Z,18.20
2017-05-10T05:26:41.846Z,18.60
2017-05-10T05:29:09.888Z,19.00
2017-05-10T05:31:36.875Z,19.30
2017-05-10T05:34:04.923Z,19.70
2017-05-10T05:36:31.888Z,20.10
2017-05-10T05:38:58.860Z,20.60
2017-05-10T05:41:25.834Z,21.10
2017-05-10T05:43:52.824Z,21.40
2017-05-10T05:46:20.508Z,21.60
2017-05-10T05:48:47.497Z,21.80
2017-05-10T05:51:14.431Z,22.20
2017-05-10T05:53:41.408Z,22.40
2017-05-10T05:56:08.383Z,22.50
2017-05-10T05:58:35.359Z,22.30
2017-05-10T06:01:02.393Z,22.80
2017-05-10T06:03:29.358Z,22.80
2017-05-10T06:05:57.278Z,21.30
2017-05-10T06:08:24.971Z,19.40
2017-05-10T06:10:51.953Z,18.00
2017-05-10T06:13:18.900Z,16.90
2017-05-10T06:15:45.923Z,16.00
2017-05-10T06:18:12.880Z,15.30
2017-05-10T06:20:39.793Z,14.90
2017-05-10T06:23:06.852Z,14.60
2017-05-10T06:25:33.820Z,14.30
2017-05-10T06:28:00.770Z,14.00
2017-05-10T06:30:27.699Z,13.80
2017-05-10T06:32:54.659Z,13.90
2017-05-10T06:35:21.607Z,14.40
2017-05-10T06:37:48.571Z,15.00
2017-05-10T06:40:16.275Z,15.80
2017-05-10T06:42:43.210Z,16.60
2017-05-10T06:45:10.153Z,17.00
2017-05-10T06:47:37.119Z,17.20
2017-05-10T06:50:04.078Z,17.50
2017-05-10T06:52:31.050Z,17.50
2017-05-10T06:54:58.755Z,17.60
2017-05-10T06:57:25.723Z,17.40
2017-05-10T06:59:52.679Z,17.90
2017-05-10T07:02:19.661Z,19.10
2017-05-10T07:04:47.334Z,20.20
2017-05-10T07:07:14.298Z,21.50
2017-05-10T07:09:41.330Z,22.50
2017-05-10T07:12:08.257Z,22.70
2017-05-10T07:14:35.203Z,22.80
2017-05-10T07:17:03.222Z,22.90
2017-05-10T07:19:30.171Z,22.70
2017-05-10T07:21:57.147Z,22.80
2017-05-10T07:24:24.852Z,23.80
2017-05-10T07:26:51.794Z,24.50
2017-05-10T07:29:18.762Z,23.90
2017-05-10T07:31:45.740Z,23.00
2017-05-10T07:34:13.429Z,22.20
2017-05-10T07:36:40.391Z,21.20
2017-05-10T07:39:07.367Z,20.00
2017-05-10T07:41:34.315Z,18.90
2017-05-10T07:44:01.267Z,18.60
2017-05-10T07:46:28.217Z,18.80
2017-05-10T07:48:55.232Z,18.60
2017-05-10T07:51:22.172Z,18.50
2017-05-10T07:53:49.138Z,18.20
2017-05-10T07:56:16.102Z,17.80
2017-05-10T07:58:43.771Z,17.50
2017-05-10T08:01:11.450Z,16.90
2017-05-10T08:03:38.419Z,16.40
2017-05-10T08:06:05.373Z,15.90
2017-05-10T08:08:32.352Z,16.00
2017-05-10T08:10:59.373Z,16.60
2017-05-10T08:13:26.301Z,17.20
2017-05-10T08:15:55.123Z,17.10
2017-05-10T08:18:22.090Z,17.00
2017-05-10T08:20:49.790Z,17.10
2017-05-10T08:23:16.749Z,17.20
2017-05-10T08:25:43.713Z,16.90
2017-05-10T08:28:10.677Z,16.40
2017-05-10T08:30:38.361Z,15.90
2017-05-10T08:33:05.310Z,15.60
2017-05-10T08:35:32.262Z,15.40
2017-05-10T08:37:59.247Z,15.20
2017-05-10T08:40:26.191Z,15.00
2017-05-10T08:42:53.331Z,14.80
2017-05-10T08:45:20.695Z,14.70
2017-05-10T08:47:47.640Z,14.80
2017-05-10T08:50:14.591Z,15.00
2017-05-10T08:52:41.551Z,15.20
2017-05-10T08:55:09.230Z,15.30
2017-05-10T08:57:36.932Z,15.40
2017-05-10T09:00:03.967Z,15.40
2017-05-10T09:02:30.931Z,15.50
2017-05-10T09:04:57.890Z,15.50
2017-05-10T09:07:24.837Z,15.60
2017-05-10T09:09:51.762Z,15.70
2017-05-10T09:12:18.697Z,15.60
2017-05-10T09:14:45.659Z,15.40
2017-05-10T09:17:12.602Z,15.50
2017-05-10T09:19:39.658Z,15.60
2017-05-10T09:22:06.590Z,15.70
2017-05-10T09:24:33.542Z,15.60
2017-05-10T09:27:00.453Z,15.50
2017-05-10T09:29:27.387Z,15.40
2017-05-10T09:31:54.329Z,15.50
2017-05-10T09:34:21.263Z,15.60
2017-05-10T09:36:48.337Z,15.60
2017-05-10T09:39:15.366Z,15.60
2017-05-10T09:41:42.305Z,15.70
2017-05-10T09:44:09.266Z,15.60
2017-05-10T09:46:36.245Z,15.60
2017-05-10T09:49:03.215Z,15.60
2017-05-10T09:51:31.265Z,15.60
2017-05-10T09:53:58.197Z,15.70
2017-05-10T09:56:25.153Z,15.60
2017-05-10T09:58:52.090Z,15.70
2017-05-10T10:01:19.026Z,15.80
2017-05-10T10:03:45.964Z,15.70
2017-05-10T10:06:12.914Z,15.60
2017-05-10T10:08:40.146Z,15.60
2017-05-10T10:11:07.106Z,15.50
2017-05-10T10:13:34.035Z,15.50
2017-05-10T10:16:00.966Z,15.50
2017-05-10T10:18:28.004Z,15.50
2017-05-10T10:20:54.969Z,15.60
2017-05-10T10:23:21.882Z,15.60
2017-05-10T10:25:49.593Z,15.60
2017-05-10T10:28:16.555Z,15.60
2017-05-10T10:30:43.483Z,15.60
2017-05-10T10:33:10.481Z,15.70
2017-05-10T10:35:37.438Z,15.70
2017-05-10T10:38:04.410Z,15.60
2017-05-10T10:40:31.347Z,15.60
2017-05-10T10:42:58.460Z,15.60
2017-05-10T10:45:25.471Z,15.60
2017-05-10T10:47:52.469Z,15.60
2017-05-10T10:50:19.404Z,15.70
2017-05-10T10:52:48.139Z,15.80
2017-05-10T10:55:15.141Z,15.80
2017-05-10T10:57:42.104Z,15.70
2017-05-10T11:00:09.075Z,15.60
2017-05-10T11:02:36.051Z,15.50
2017-05-10T11:05:03.745Z,15.70
2017-05-10T11:07:30.920Z,15.80
2017-05-10T11:09:57.905Z,15.80
2017-05-10T11:12:25.954Z,15.90
2017-05-10T11:14:52.930Z,15.90
2017-05-10T11:17:20.609Z,15.90
2017-05-10T11:19:47.579Z,15.90
2017-05-10T11:22:14.647Z,15.90
2017-05-10T11:24:41.569Z,15.80
2017-05-10T11:27:08.582Z,15.70
2017-05-10T11:29:36.206Z,15.80
2017-05-10T11:32:03.198Z,15.80
2017-05-10T11:34:30.203Z,15.90
2017-05-10T11:36:58.014Z,16.00
2017-05-10T11:39:24.987Z,16.10
2017-05-10T11:41:51.992Z,16.10
2017-05-10T11:44:18.969Z,16.20
2017-05-10T11:46:46.037Z,16.30
2017-05-10T11:49:13.009Z,16.20
2017-05-10T11:51:40.721Z,16.10
2017-05-10T11:54:07.768Z,16.20
2017-05-10T11:56:34.864Z,16.30
2017-05-10T11:59:02.560Z,16.40
2017-05-10T12:01:29.891Z,16.40
2017-05-10T12:03:56.885Z,16.30
2017-05-10T12:06:23.867Z,16.30
2017-05-10T12:08:51.593Z,16.10
2017-05-10T12:11:18.604Z,15.90
2017-05-10T12:13:45.565Z,15.80
2017-05-10T12:16:12.583Z,15.90
2017-05-10T12:18:39.573Z,15.90
2017-05-10T12:21:06.532Z,15.80
2017-05-10T12:23:33.526Z,15.80
2017-05-10T12:26:00.565Z,15.90
2017-05-10T12:28:28.415Z,16.00
2017-05-10T12:30:55.423Z,16.00
2017-05-10T12:33:22.387Z,16.10
2017-05-10T12:35:55.887Z,16.10
2017-05-10T12:38:22.834Z,16.10
2017-05-10T12:40:49.774Z,16.10
2017-05-10T12:43:16.751Z,16.00
2017-05-10T12:45:43.740Z,16.00
2017-05-10T12:48:11.382Z,16.10
2017-05-10T12:50:38.400Z,16.20
2017-05-10T12:53:05.783Z,16.40
2017-05-10T12:55:32.735Z,16.40
2017-05-10T12:57:59.670Z,16.40
2017-05-10T13:00:26.621Z,16.40
2017-05-10T13:02:53.590Z,16.40
2017-05-10T13:05:20.584Z,16.40
2017-05-10T13:07:47.702Z,16.40
2017-05-10T13:10:15.423Z,16.50
2017-05-10T13:12:42.337Z,16.60
2017-05-10T13:15:09.285Z,16.60
2017-05-10T13:17:36.203Z,16.60
2017-05-10T13:20:03.886Z,16.60
2017-05-10T13:22:30.882Z,16.60
2017-05-10T13:24:58.176Z,16.60
2017-05-10T13:27:25.121Z,16.60
2017-05-10T13:29:53.018Z,16.60
2017-05-10T13:32:20.127Z,16.50
2017-05-10T13:34:47.833Z,16.50
2017-05-10T13:37:14.822Z,16.60
2017-05-10T13:39:41.850Z,16.60
2017-05-10T13:42:08.830Z,16.60
2017-05-10T13:44:35.821Z,16.70
2017-05-10T13:47:02.806Z,16.80
2017-05-10T13:49:30.638Z,16.90
2017-05-10T13:51:57.602Z,17.00
2017-05-10T13:54:24.621Z,17.00
2017-05-10T13:56:51.550Z,16.90
2017-05-10T13:59:18.514Z,16.80
2017-05-10T14:01:45.455Z,16.80
2017-05-10T14:04:12.433Z,16.80
2017-05-10T14:06:39.410Z,16.90
2017-05-10T14:09:06.445Z,16.90
2017-05-10T14:11:34.006Z,16.90
2017-05-10T14:14:01.004Z,16.80
2017-05-10T14:16:27.976Z,16.80
2017-05-10T14:18:54.961Z,16.90
2017-05-10T14:21:21.945Z,17.00
2017-05-10T14:23:48.950Z,16.90
2017-05-10T14:26:15.951Z,17.00
2017-05-10T14:28:43.193Z,17.00
2017-05-10T14:31:10.138Z,17.10
2017-05-10T14:33:37.098Z,17.20
2017-05-10T14:36:04.813Z,17.10
2017-05-10T14:38:31.753Z,17.10
2017-05-10T14:40:59.020Z,17.10
2017-05-10T14:43:26.000Z,17.10
2017-05-10T14:45:52.946Z,17.10
2017-05-10T14:48:20.605Z,17.10
2017-05-10T14:50:47.554Z,17.10
2017-05-10T14:53:15.222Z,17.10
2017-05-10T14:55:43.169Z,17.10
2017-05-10T14:58:10.367Z,17.10
2017-05-10T15:00:37.306Z,17.10
2017-05-10T15:03:04.295Z,17.00
2017-05-10T15:05:31.295Z,17.00
2017-05-10T15:07:58.271Z,17.00
2017-05-10T15:10:25.223Z,17.00
2017-05-10T15:12:52.171Z,17.00
2017-05-10T15:15:19.074Z,17.00
2017-05-10T15:17:46.018Z,17.00
2017-05-10T15:20:12.966Z,17.00
2017-05-10T15:22:40.208Z,17.00
2017-05-10T15:25:07.141Z,16.90
2017-05-10T15:27:35.341Z,16.90
2017-05-10T15:30:02.311Z,16.90
2017-05-10T15:32:29.251Z,16.90
2017-05-10T15:34:56.229Z,16.90
2017-05-10T15:37:23.186Z,16.80
2017-05-10T15:39:50.858Z,16.80
2017-05-10T15:42:18.566Z,16.80
2017-05-10T15:44:45.503Z,16.80
2017-05-10T15:47:12.424Z,16.80
2017-05-10T15:49:39.481Z,16.80
2017-05-10T15:52:06.405Z,16.80
2017-05-10T15:54:33.330Z,16.80
2017-05-10T15:57:00.994Z,16.70
2017-05-10T15:59:28.661Z,16.80
2017-05-10T16:01:56.318Z,16.80
2017-05-10T16:04:24.002Z,16.70
2017-05-10T16:06:50.914Z,16.60
2017-05-10T16:09:18.644Z,16.50
2017-05-10T16:11:45.605Z,16.50
2017-05-10T16:14:12.603Z,16.50
2017-05-10T16:16:40.286Z,16.50
2017-05-10T16:19:07.267Z,16.50
2017-05-10T16:21:34.230Z,16.50
2017-05-10T16:24:01.908Z,16.40
2017-05-10T16:26:29.119Z,16.50
2017-05-10T16:28:57.216Z,16.50
2017-05-10T16:31:24.148Z,16.50
2017-05-10T16:33:51.833Z,16.50
2017-05-10T16:36:18.753Z,16.50
2017-05-10T16:38:46.414Z,16.50
2017-05-10T16:41:14.155Z,16.30
2017-05-10T16:43:41.079Z,16.30
2017-05-10T16:46:07.987Z,16.10
2017-05-10T16:48:34.930Z,16.10
2017-05-10T16:51:01.851Z,16.00
2017-05-10T16:53:29.559Z,15.90
2017-05-10T16:55:56.577Z,15.90
2017-05-10T16:58:23.489Z,15.80
2017-05-10T17:00:50.416Z,15.80
2017-05-10T17:03:17.385Z,15.70
2017-05-10T17:05:44.358Z,15.60
2017-05-10T17:08:11.292Z,15.60
2017-05-10T17:10:38.983Z,15.60
2017-05-10T17:13:05.926Z,15.70
2017-05-10T17:15:32.867Z,15.70
2017-05-10T17:17:59.801Z,15.70
2017-05-10T17:20:26.709Z,15.70
2017-05-10T17:22:53.656Z,15.60
2017-05-10T17:25:20.602Z,15.70
2017-05-10T17:27:48.316Z,15.60
2017-05-10T17:30:15.280Z,15.50
2017-05-10T17:32:42.654Z,15.40
2017-05-10T17:35:09.599Z,15.40
2017-05-10T17:37:36.544Z,15.30
2017-05-10T17:40:04.784Z,15.30
2017-05-10T17:42:31.854Z,15.20
2017-05-10T17:44:58.857Z,15.10
2017-05-10T17:47:25.846Z,15.00
2017-05-10T17:49:52.810Z,14.90
2017-05-10T17:52:20.492Z,14.80
2017-05-10T17:54:47.467Z,14.60
2017-05-10T17:57:14.428Z,14.50
2017-05-10T17:59:41.475Z,14.40
2017-05-10T18:02:08.845Z,14.40
2017-05-10T18:04:35.804Z,14.30
2017-05-10T18:07:03.532Z,14.20
2017-05-10T18:09:30.866Z,14.10
2017-05-10T18:11:57.804Z,14.00
2017-05-10T18:14:24.792Z,13.90
2017-05-10T18:16:51.747Z,13.80
2017-05-10T18:19:18.772Z,13.70
2017-05-10T18:21:45.741Z,13.60
2017-05-10T18:24:12.718Z,13.50
2017-05-10T18:26:39.944Z,13.40
2017-05-10T18:29:07.764Z,13.20
2017-05-10T18:31:34.733Z,13.10
2017-05-10T18:34:01.687Z,13.00
2017-05-10T18:36:29.342Z,12.80
2017-05-10T18:38:56.321Z,12.60
2017-05-10T18:41:24.021Z,12.50
2017-05-10T18:43:50.959Z,12.40
2017-05-10T18:46:17.888Z,12.30
2017-05-10T18:48:44.833Z,12.20
2017-05-10T18:51:11.751Z,12.10
2017-05-10T18:53:38.727Z,12.10
2017-05-10T18:56:05.686Z,12.00
2017-05-10T18:58:32.941Z,12.00
2017-05-10T19:00:59.910Z,11.90
2017-05-10T19:03:26.827Z,11.90
2017-05-10T19:05:53.810Z,11.80
2017-05-10T19:08:21.091Z,11.70
2017-05-10T19:10:48.025Z,11.70
2017-05-10T19:13:15.732Z,11.60
2017-05-10T19:15:42.808Z,11.50
2017-05-10T19:18:09.769Z,11.50
2017-05-10T19:20:37.430Z,11.30
2017-05-10T19:23:05.127Z,11.20
2017-05-10T19:25:32.082Z,11.20
2017-05-10T19:27:58.997Z,11.10
2017-05-10T19:30:25.957Z,11.00
2017-05-10T19:32:52.927Z,10.90
2017-05-10T19:35:19.898Z,10.90
2017-05-10T19:37:46.888Z,10.70
2017-05-10T19:40:13.834Z,10.60
2017-05-10T19:42:40.882Z,10.50
2017-05-10T19:45:08.205Z,10.40
2017-05-10T19:47:35.693Z,10.30
2017-05-10T19:50:02.681Z,10.20
2017-05-10T19:52:29.687Z,10.00
2017-05-10T19:54:56.927Z,9.90
2017-05-10T19:57:24.022Z,9.80
2017-05-10T19:59:51.150Z,9.70
2017-05-10T20:02:18.125Z,9.70
2017-05-10T20:04:45.104Z,9.60
2017-05-10T20:07:12.118Z,9.40
2017-05-10T20:09:39.072Z,9.30
2017-05-10T20:12:06.766Z,9.30
2017-05-10T20:14:33.795Z,9.20
2017-05-10T20:17:00.751Z,9.10
2017-05-10T20:19:27.677Z,9.00
2017-05-10T20:21:55.396Z,8.90
2017-05-10T20:24:22.358Z,8.90
2017-05-10T20:26:49.270Z,8.90
2017-05-10T20:29:16.562Z,8.80
2017-05-10T20:31:43.506Z,8.80
2017-05-10T20:34:10.462Z,8.70
2017-05-10T20:36:38.134Z,8.60
2017-05-10T20:39:05.778Z,8.50
2017-05-10T20:41:32.789Z,8.50
2017-05-10T20:43:59.763Z,8.40
2017-05-10T20:46:26.666Z,8.30
2017-05-10T20:48:53.592Z,8.30
2017-05-10T20:51:20.590Z,8.20
2017-05-10T20:53:47.541Z,8.10
2017-05-10T20:56:14.451Z,8.10
2017-05-10T20:58:41.380Z,8.00
2017-05-10T21:01:08.335Z,7.90
2017-05-10T21:03:35.301Z,7.90
2017-05-10T21:06:02.550Z,7.80
2017-05-10T21:08:29.449Z,7.70
2017-05-10T21:10:56.370Z,7.70
2017-05-10T21:13:24.038Z,7.60
2017-05-10T21:15:51.682Z,7.60
2017-05-10T21:18:18.604Z,7.50
2017-05-10T21:20:45.517Z,7.50
2017-05-10T21:23:12.421Z,7.40
2017-05-10T21:25:40.193Z,7.40
2017-05-10T21:28:07.155Z,7.40
2017-05-10T21:30:34.154Z,7.30
2017-05-10T21:33:01.080Z,7.30
2017-05-10T21:35:28.333Z,7.20
2017-05-10T21:37:55.255Z,7.20
2017-05-10T21:40:22.187Z,7.20
2017-05-10T21:42:49.119Z,7.10
2017-05-10T21:45:16.062Z,7.10
2017-05-10T21:47:43.018Z,7.10
2017-05-10T21:50:09.958Z,7.00
2017-05-10T21:52:36.938Z,7.00
2017-05-10T21:55:03.860Z,7.00
2017-05-10T21:57:30.878Z,6.90
2017-05-10T21:59:58.532Z,6.90
2017-05-10T22:02:26.164Z,6.80
2017-05-10T22:04:53.093Z,6.80
2017-05-10T22:07:20.007Z,6.80
2017-05-10T22:09:46.938Z,6.70
2017-05-10T22:12:13.851Z,6.70
2017-05-10T22:14:40.763Z,6.70
2017-05-10T22:17:07.674Z,6.60
2017-05-10T22:19:34.594Z,6.60
2017-05-10T22:22:02.246Z,6.60
2017-05-10T22:24:29.159Z,6.50
2017-05-10T22:26:56.081Z,6.50
2017-05-10T22:29:23.066Z,6.50
2017-05-10T22:31:49.977Z,6.50
2017-05-10T22:34:16.915Z,6.40
2017-05-10T22:36:43.838Z,6.40
2017-05-10T22:39:10.734Z,6.30
2017-05-10T22:41:38.078Z,6.30
2017-05-10T22:44:04.990Z,6.30
2017-05-10T22:46:31.915Z,6.30
2017-05-10T22:48:58.849Z,6.20
2017-05-10T22:51:26.490Z,6.20
2017-05-10T22:53:53.393Z,6.20
2017-05-10T22:56:20.334Z,6.20
2017-05-10T22:58:47.245Z,6.10
2017-05-10T23:01:14.906Z,6.10
2017-05-10T23:03:42.936Z,6.10
2017-05-10T23:06:09.848Z,6.10
2017-05-10T23:08:36.750Z,6.00
2017-05-10T23:11:04.439Z,6.00
2017-05-10T23:13:31.351Z,6.00
2017-05-10T23:15:58.994Z,5.90
2017-05-10T23:18:25.921Z,5.90
2017-05-10T23:20:52.838Z,5.90
2017-05-10T23:23:19.746Z,5.80
2017-05-10T23:25:47.410Z,5.80
2017-05-10T23:28:15.071Z,5.70
2017-05-10T23:30:42.726Z,5.70
2017-05-10T23:33:10.045Z,5.70
2017-05-10T23:35:36.958Z,5.60
2017-05-10T23:38:03.874Z,5.60
2017-05-10T23:40:31.558Z,5.50
2017-05-10T23:42:58.472Z,5.50
2017-05-10T23:45:26.130Z,5.50
2017-05-10T23:47:53.059Z,5.40
2017-05-10T23:50:19.979Z,5.40
2017-05-10T23:52:46.900Z,5.40
2017-05-10T23:55:14.193Z,5.40
2017-05-10T23:57:41.114Z,5.30
